sensor_id;sensor_type;location;lat;lon;timestamp;temperature;humidity
22532;DHT22;11432;46.924;7.114;2023-04-01T00:01:05;8.00;77.40
22532;DHT22;11432;46.924;7.114;2023-04-01T00:03:31;8.00;12.30
22532;DHT22;11432;46.924;7.114;2023-04-01T00:05:58;8.00;17.00
22532;DHT22;11432;46.924;7.114;2023-04-01T00:08:26;8.00;1.00
22532;DHT22;11432;46.924;7.114;2023-04-01T00:10:52;8.00;1.00
22532;DHT22;11432;46.924;7.114;2023-04-01T00:13:18;8.00;1.00
22532;DHT22;11432;46.924;7.114;2023-04-01T00:15:45;8.10;1.00
22532;DHT22;11432;46.924;7.114;2023-04-01T00:18:11;8.10;1.00
22532;DHT22;11432;46.924;7.114;2023-04-01T00:20:37;8.10;1.00
22532;DHT22;11432;46.924;7.114;2023-04-01T00:23:03;8.10;1.00
22532;DHT22;11432;46.924;7.114;2023-04-01T00:25:28;8.10;1.00
22532;DHT22;11432;46.924;7.114;2023-04-01T00:27:54;8.20;1.00
22532;DHT22;11432;46.924;7.114;2023-04-01T00:30:20;8.20;1.00
22532;DHT22;11432;46.924;7.114;2023-04-01T00:32:46;8.20;1.00
22532;DHT22;11432;46.924;7.114;2023-04-01T00:35:11;8.10;1.00
22532;DHT22;11432;46.924;7.114;2023-04-01T00:37:38;8.20;1.00
22532;DHT22;11432;46.924;7.114;2023-04-01T00:40:24;8.30;1.00
22532;DHT22;11432;46.924;7.114;2023-04-01T00:42:50;8.30;1.00
22532;DHT22;11432;46.924;7.114;2023-04-01T00:45:37;8.30;1.00
22532;DHT22;11432;46.924;7.114;2023-04-01T00:48:10;8.30;1.00
22532;DHT22;11432;46.924;7.114;2023-04-01T00:50:37;8.40;1.00
22532;DHT22;11432;46.924;7.114;2023-04-01T00:53:05;8.40;1.00
22532;DHT22;11432;46.924;7.114;2023-04-01T00:55:35;8.50;1.00
22532;DHT22;11432;46.924;7.114;2023-04-01T00:58:04;8.50;1.00
22532;DHT22;11432;46.924;7.114;2023-04-01T01:00:30;8.40;1.00
22532;DHT22;11432;46.924;7.114;2023-04-01T01:02:56;8.40;1.00
22532;DHT22;11432;46.924;7.114;2023-04-01T01:05:30;8.40;1.00
22532;DHT22;11432;46.924;7.114;2023-04-01T01:10:51;8.40;1.00
22532;DHT22;11432;46.924;7.114;2023-04-01T01:13:19;8.40;1.00
22532;DHT22;11432;46.924;7.114;2023-04-01T01:18:44;8.40;1.00
22532;DHT22;11432;46.924;7.114;2023-04-01T01:24:31;8.40;1.00
22532;DHT22;11432;46.924;7.114;2023-04-01T01:27:10;8.40;1.00
22532;DHT22;11432;46.924;7.114;2023-04-01T01:37:54;8.60;1.00
22532;DHT22;11432;46.924;7.114;2023-04-01T01:40:21;8.70;1.00
22532;DHT22;11432;46.924;7.114;2023-04-01T01:42:50;8.80;1.00
22532;DHT22;11432;46.924;7.114;2023-04-01T01:45:20;8.70;1.00
22532;DHT22;11432;46.924;7.114;2023-04-01T01:47:48;8.60;1.00
22532;DHT22;11432;46.924;7.114;2023-04-01T01:50:15;8.60;1.00
22532;DHT22;11432;46.924;7.114;2023-04-01T01:52:42;8.50;1.00
22532;DHT22;11432;46.924;7.114;2023-04-01T01:57:59;8.30;1.00
22532;DHT22;11432;46.924;7.114;2023-04-01T02:00:26;8.20;1.00
22532;DHT22;11432;46.924;7.114;2023-04-01T02:02:53;8.10;1.00
22532;DHT22;11432;46.924;7.114;2023-04-01T02:05:21;8.00;1.00
22532;DHT22;11432;46.924;7.114;2023-04-01T02:07:50;8.00;1.00
22532;DHT22;11432;46.924;7.114;2023-04-01T02:10:21;7.90;1.00
22532;DHT22;11432;46.924;7.114;2023-04-01T02:12:48;7.90;1.00
22532;DHT22;11432;46.924;7.114;2023-04-01T02:15:16;7.80;1.00
22532;DHT22;11432;46.924;7.114;2023-04-01T02:17:44;7.90;1.00
22532;DHT22;11432;46.924;7.114;2023-04-01T02:20:20;7.90;1.00
22532;DHT22;11432;46.924;7.114;2023-04-01T02:22:50;7.90;1.00
22532;DHT22;11432;46.924;7.114;2023-04-01T02:25:26;7.90;1.00
22532;DHT22;11432;46.924;7.114;2023-04-01T02:27:53;8.00;1.00
22532;DHT22;11432;46.924;7.114;2023-04-01T02:30:20;8.00;1.00
22532;DHT22;11432;46.924;7.114;2023-04-01T02:32:47;8.00;1.00
22532;DHT22;11432;46.924;7.114;2023-04-01T02:35:15;8.00;1.00
22532;DHT22;11432;46.924;7.114;2023-04-01T02:37:42;8.00;1.00
22532;DHT22;11432;46.924;7.114;2023-04-01T02:40:13;8.00;1.00
22532;DHT22;11432;46.924;7.114;2023-04-01T02:42:39;8.00;1.00
22532;DHT22;11432;46.924;7.114;2023-04-01T02:45:06;8.00;1.00
22532;DHT22;11432;46.924;7.114;2023-04-01T02:47:32;8.00;1.00
22532;DHT22;11432;46.924;7.114;2023-04-01T02:49:58;8.00;1.00
22532;DHT22;11432;46.924;7.114;2023-04-01T02:52:28;8.00;1.00
22532;DHT22;11432;46.924;7.114;2023-04-01T02:54:55;8.00;1.00
22532;DHT22;11432;46.924;7.114;2023-04-01T02:57:20;8.00;1.00
22532;DHT22;11432;46.924;7.114;2023-04-01T02:59:46;8.00;1.00
22532;DHT22;11432;46.924;7.114;2023-04-01T03:02:12;8.00;1.00
22532;DHT22;11432;46.924;7.114;2023-04-01T03:04:38;8.00;1.00
22532;DHT22;11432;46.924;7.114;2023-04-01T03:07:04;8.00;1.00
22532;DHT22;11432;46.924;7.114;2023-04-01T03:09:29;8.00;1.00
22532;DHT22;11432;46.924;7.114;2023-04-01T03:11:55;8.00;1.00
22532;DHT22;11432;46.924;7.114;2023-04-01T03:14:21;8.00;1.00
22532;DHT22;11432;46.924;7.114;2023-04-01T03:16:47;8.00;1.00
22532;DHT22;11432;46.924;7.114;2023-04-01T03:19:12;8.00;1.00
22532;DHT22;11432;46.924;7.114;2023-04-01T03:21:38;8.00;1.00
22532;DHT22;11432;46.924;7.114;2023-04-01T03:24:04;8.00;1.00
22532;DHT22;11432;46.924;7.114;2023-04-01T03:26:30;7.90;1.00
22532;DHT22;11432;46.924;7.114;2023-04-01T03:28:56;7.80;1.00
22532;DHT22;11432;46.924;7.114;2023-04-01T03:31:22;7.80;1.00
22532;DHT22;11432;46.924;7.114;2023-04-01T03:33:47;7.80;1.00
22532;DHT22;11432;46.924;7.114;2023-04-01T03:36:14;7.70;1.00
22532;DHT22;11432;46.924;7.114;2023-04-01T03:38:40;7.60;1.00
22532;DHT22;11432;46.924;7.114;2023-04-01T03:41:06;7.50;1.00
22532;DHT22;11432;46.924;7.114;2023-04-01T03:43:32;7.40;1.00
22532;DHT22;11432;46.924;7.114;2023-04-01T03:45:58;7.30;1.00
22532;DHT22;11432;46.924;7.114;2023-04-01T03:48:25;7.30;18.20
22532;DHT22;11432;46.924;7.114;2023-04-01T03:50:51;7.30;1.00
22532;DHT22;11432;46.924;7.114;2023-04-01T03:53:17;7.40;1.00
22532;DHT22;11432;46.924;7.114;2023-04-01T03:55:42;7.40;1.00
22532;DHT22;11432;46.924;7.114;2023-04-01T03:58:10;7.30;1.00
22532;DHT22;11432;46.924;7.114;2023-04-01T04:00:36;7.30;9.20
22532;DHT22;11432;46.924;7.114;2023-04-01T04:03:02;7.30;1.00
22532;DHT22;11432;46.924;7.114;2023-04-01T04:05:28;7.40;1.00
22532;DHT22;11432;46.924;7.114;2023-04-01T04:07:53;7.30;1.00
22532;DHT22;11432;46.924;7.114;2023-04-01T04:10:19;7.30;1.00
22532;DHT22;11432;46.924;7.114;2023-04-01T04:12:45;7.30;23.40
22532;DHT22;11432;46.924;7.114;2023-04-01T04:15:12;7.30;18.10
22532;DHT22;11432;46.924;7.114;2023-04-01T04:17:37;7.30;27.20
22532;DHT22;11432;46.924;7.114;2023-04-01T04:20:03;7.20;22.80
22532;DHT22;11432;46.924;7.114;2023-04-01T04:22:29;7.30;33.00
22532;DHT22;11432;46.924;7.114;2023-04-01T04:24:55;7.30;1.00
22532;DHT22;11432;46.924;7.114;2023-04-01T04:27:20;7.50;1.00
22532;DHT22;11432;46.924;7.114;2023-04-01T04:29:46;7.50;1.00
22532;DHT22;11432;46.924;7.114;2023-04-01T04:32:11;7.50;1.00
22532;DHT22;11432;46.924;7.114;2023-04-01T04:34:37;7.50;1.00
22532;DHT22;11432;46.924;7.114;2023-04-01T04:37:03;7.50;1.00
22532;DHT22;11432;46.924;7.114;2023-04-01T04:39:29;7.50;1.00
22532;DHT22;11432;46.924;7.114;2023-04-01T04:41:54;7.40;4.70
22532;DHT22;11432;46.924;7.114;2023-04-01T04:44:20;7.30;42.80
22532;DHT22;11432;46.924;7.114;2023-04-01T04:46:46;7.30;27.70
22532;DHT22;11432;46.924;7.114;2023-04-01T04:49:11;7.30;27.50
22532;DHT22;11432;46.924;7.114;2023-04-01T04:51:37;7.30;4.30
22532;DHT22;11432;46.924;7.114;2023-04-01T04:54:04;7.30;12.30
22532;DHT22;11432;46.924;7.114;2023-04-01T04:56:30;7.30;15.00
22532;DHT22;11432;46.924;7.114;2023-04-01T04:58:56;7.30;21.40
22532;DHT22;11432;46.924;7.114;2023-04-01T05:01:22;7.30;59.60
22532;DHT22;11432;46.924;7.114;2023-04-01T05:03:47;7.30;85.50
22532;DHT22;11432;46.924;7.114;2023-04-01T05:06:17;7.20;99.90
22532;DHT22;11432;46.924;7.114;2023-04-01T05:08:43;7.10;99.90
22532;DHT22;11432;46.924;7.114;2023-04-01T05:11:13;7.10;99.90
22532;DHT22;11432;46.924;7.114;2023-04-01T05:13:39;7.20;90.60
22532;DHT22;11432;46.924;7.114;2023-04-01T05:16:16;7.20;48.80
22532;DHT22;11432;46.924;7.114;2023-04-01T05:18:42;7.30;53.20
22532;DHT22;11432;46.924;7.114;2023-04-01T05:21:10;7.30;28.30
22532;DHT22;11432;46.924;7.114;2023-04-01T05:23:36;7.30;10.90
22532;DHT22;11432;46.924;7.114;2023-04-01T05:26:10;7.40;11.10
22532;DHT22;11432;46.924;7.114;2023-04-01T05:28:36;7.40;15.30
22532;DHT22;11432;46.924;7.114;2023-04-01T05:31:03;7.30;38.50
22532;DHT22;11432;46.924;7.114;2023-04-01T05:33:30;7.30;77.10
22532;DHT22;11432;46.924;7.114;2023-04-01T05:35:56;7.30;27.60
22532;DHT22;11432;46.924;7.114;2023-04-01T05:38:22;7.30;4.40
22532;DHT22;11432;46.924;7.114;2023-04-01T05:40:47;7.30;1.00
22532;DHT22;11432;46.924;7.114;2023-04-01T05:43:13;7.40;1.00
22532;DHT22;11432;46.924;7.114;2023-04-01T05:45:39;7.50;1.00
22532;DHT22;11432;46.924;7.114;2023-04-01T05:48:05;7.50;1.00
22532;DHT22;11432;46.924;7.114;2023-04-01T05:50:31;7.50;1.00
22532;DHT22;11432;46.924;7.114;2023-04-01T05:52:58;7.50;1.00
22532;DHT22;11432;46.924;7.114;2023-04-01T05:55:23;7.50;1.00
22532;DHT22;11432;46.924;7.114;2023-04-01T05:57:49;7.50;1.00
22532;DHT22;11432;46.924;7.114;2023-04-01T06:00:16;7.50;1.00
22532;DHT22;11432;46.924;7.114;2023-04-01T06:02:42;7.50;1.00
22532;DHT22;11432;46.924;7.114;2023-04-01T06:05:23;7.40;1.00
22532;DHT22;11432;46.924;7.114;2023-04-01T06:07:53;7.40;26.00
22532;DHT22;11432;46.924;7.114;2023-04-01T06:10:21;7.30;3.30
22532;DHT22;11432;46.924;7.114;2023-04-01T06:13:11;7.30;28.70
22532;DHT22;11432;46.924;7.114;2023-04-01T06:15:45;7.20;3.70
22532;DHT22;11432;46.924;7.114;2023-04-01T06:21:30;7.20;1.00
22532;DHT22;11432;46.924;7.114;2023-04-01T06:24:02;7.20;11.40
22532;DHT22;11432;46.924;7.114;2023-04-01T06:31:46;7.30;1.00
22532;DHT22;11432;46.924;7.114;2023-04-01T06:42:48;7.40;1.00
22532;DHT22;11432;46.924;7.114;2023-04-01T06:50:29;7.60;1.00
22532;DHT22;11432;46.924;7.114;2023-04-01T06:56:08;7.70;1.00
22532;DHT22;11432;46.924;7.114;2023-04-01T06:58:42;7.70;1.00
22532;DHT22;11432;46.924;7.114;2023-04-01T07:01:14;7.80;1.00
22532;DHT22;11432;46.924;7.114;2023-04-01T07:03:57;7.80;1.00
22532;DHT22;11432;46.924;7.114;2023-04-01T07:06:29;7.70;1.00
22532;DHT22;11432;46.924;7.114;2023-04-01T07:09:01;7.70;1.00
22532;DHT22;11432;46.924;7.114;2023-04-01T07:11:32;7.70;1.00
22532;DHT22;11432;46.924;7.114;2023-04-01T07:14:13;7.70;1.00
22532;DHT22;11432;46.924;7.114;2023-04-01T07:20:13;7.80;1.00
22532;DHT22;11432;46.924;7.114;2023-04-01T07:22:46;7.90;1.00
22532;DHT22;11432;46.924;7.114;2023-04-01T07:28:05;8.00;2.60
22532;DHT22;11432;46.924;7.114;2023-04-01T07:36:16;8.00;1.00
22532;DHT22;11432;46.924;7.114;2023-04-01T07:38:57;8.00;1.00
22532;DHT22;11432;46.924;7.114;2023-04-01T07:41:48;8.00;1.00
22532;DHT22;11432;46.924;7.114;2023-04-01T07:52:07;7.80;1.00
22532;DHT22;11432;46.924;7.114;2023-04-01T07:54:55;7.90;1.00
22532;DHT22;11432;46.924;7.114;2023-04-01T07:57:36;7.90;1.00
22532;DHT22;11432;46.924;7.114;2023-04-01T08:05:25;7.70;19.10
22532;DHT22;11432;46.924;7.114;2023-04-01T08:24:01;8.40;1.00
22532;DHT22;11432;46.924;7.114;2023-04-01T08:26:39;8.40;1.00
22532;DHT22;11432;46.924;7.114;2023-04-01T08:29:16;8.50;1.00
22532;DHT22;11432;46.924;7.114;2023-04-01T08:31:51;8.50;1.00
22532;DHT22;11432;46.924;7.114;2023-04-01T08:34:21;8.60;1.00
22532;DHT22;11432;46.924;7.114;2023-04-01T08:39:59;8.50;1.00
22532;DHT22;11432;46.924;7.114;2023-04-01T08:56:41;8.80;1.00
22532;DHT22;11432;46.924;7.114;2023-04-01T09:02:22;8.90;1.00
22532;DHT22;11432;46.924;7.114;2023-04-01T09:16:10;9.10;1.00
22532;DHT22;11432;46.924;7.114;2023-04-01T09:27:27;9.50;18.10
22532;DHT22;11432;46.924;7.114;2023-04-01T09:30:27;9.60;1.00
22532;DHT22;11432;46.924;7.114;2023-04-01T09:35:48;9.30;1.00
22532;DHT22;11432;46.924;7.114;2023-04-01T09:38:28;9.10;1.00
22532;DHT22;11432;46.924;7.114;2023-04-01T09:44:03;8.80;1.00
22532;DHT22;11432;46.924;7.114;2023-04-01T09:46:48;8.70;1.00
22532;DHT22;11432;46.924;7.114;2023-04-01T10:06:12;9.00;1.00
22532;DHT22;11432;46.924;7.114;2023-04-01T10:08:55;8.90;1.00
22532;DHT22;11432;46.924;7.114;2023-04-01T10:11:42;9.00;1.00
22532;DHT22;11432;46.924;7.114;2023-04-01T10:17:03;9.30;1.00
22532;DHT22;11432;46.924;7.114;2023-04-01T10:36:15;9.80;1.00
22532;DHT22;11432;46.924;7.114;2023-04-01T10:48:05;9.30;1.00
22532;DHT22;11432;46.924;7.114;2023-04-01T11:31:54;11.70;92.00
22532;DHT22;11432;46.924;7.114;2023-04-01T11:40:26;11.50;71.00
22532;DHT22;11432;46.924;7.114;2023-04-01T12:08:24;13.10;99.90
22532;DHT22;11432;46.924;7.114;2023-04-01T12:25:00;12.60;99.90
22532;DHT22;11432;46.924;7.114;2023-04-01T12:30:21;15.00;99.90
22532;DHT22;11432;46.924;7.114;2023-04-01T12:41:26;12.00;97.20
22532;DHT22;11432;46.924;7.114;2023-04-01T12:44:08;11.60;1.00
22532;DHT22;11432;46.924;7.114;2023-04-01T13:03:46;9.60;1.00
22532;DHT22;11432;46.924;7.114;2023-04-01T13:16:42;11.10;1.00
22532;DHT22;11432;46.924;7.114;2023-04-01T13:25:13;11.40;1.00
22532;DHT22;11432;46.924;7.114;2023-04-01T13:27:45;13.60;97.70
22532;DHT22;11432;46.924;7.114;2023-04-01T13:30:38;12.70;96.40
22532;DHT22;11432;46.924;7.114;2023-04-01T13:38:48;10.80;1.00
22532;DHT22;11432;46.924;7.114;2023-04-01T13:41:34;10.90;1.00
22532;DHT22;11432;46.924;7.114;2023-04-01T13:50:17;14.40;77.90
22532;DHT22;11432;46.924;7.114;2023-04-01T13:59:08;16.90;99.90
22532;DHT22;11432;46.924;7.114;2023-04-01T14:10:18;18.80;97.80
22532;DHT22;11432;46.924;7.114;2023-04-01T14:13:00;18.70;97.90
22532;DHT22;11432;46.924;7.114;2023-04-01T14:32:11;11.70;1.00
22532;DHT22;11432;46.924;7.114;2023-04-01T14:47:54;9.00;99.90
22532;DHT22;11432;46.924;7.114;2023-04-01T14:50:24;10.00;99.90
22532;DHT22;11432;46.924;7.114;2023-04-01T14:53:11;10.70;99.90
22532;DHT22;11432;46.924;7.114;2023-04-01T15:00:46;11.40;1.00
22532;DHT22;11432;46.924;7.114;2023-04-01T15:05:51;11.40;16.70
22532;DHT22;11432;46.924;7.114;2023-04-01T15:08:30;11.60;24.60
22532;DHT22;11432;46.924;7.114;2023-04-01T15:13:48;11.80;1.00
22532;DHT22;11432;46.924;7.114;2023-04-01T15:29:46;14.50;76.60
22532;DHT22;11432;46.924;7.114;2023-04-01T15:32:46;14.50;89.90
22532;DHT22;11432;46.924;7.114;2023-04-01T15:35:39;12.50;1.00
22532;DHT22;11432;46.924;7.114;2023-04-01T15:41:16;12.30;1.00
22532;DHT22;11432;46.924;7.114;2023-04-01T15:43:47;12.10;1.00
22532;DHT22;11432;46.924;7.114;2023-04-01T16:00:49;14.60;61.90
22532;DHT22;11432;46.924;7.114;2023-04-01T16:03:24;14.30;66.10
22532;DHT22;11432;46.924;7.114;2023-04-01T16:12:04;11.80;1.00
22532;DHT22;11432;46.924;7.114;2023-04-01T16:20:25;12.70;1.00
22532;DHT22;11432;46.924;7.114;2023-04-01T16:23:10;12.20;1.00
22532;DHT22;11432;46.924;7.114;2023-04-01T16:25:45;11.60;1.00
22532;DHT22;11432;46.924;7.114;2023-04-01T16:40:01;10.90;1.00
22532;DHT22;11432;46.924;7.114;2023-04-01T16:47:56;10.80;1.00
22532;DHT22;11432;46.924;7.114;2023-04-01T16:55:58;10.60;1.00
22532;DHT22;11432;46.924;7.114;2023-04-01T16:58:34;10.60;1.00
22532;DHT22;11432;46.924;7.114;2023-04-01T17:01:07;10.70;1.00
22532;DHT22;11432;46.924;7.114;2023-04-01T17:03:46;10.70;1.00
22532;DHT22;11432;46.924;7.114;2023-04-01T17:14:28;13.40;53.90
22532;DHT22;11432;46.924;7.114;2023-04-01T17:17:16;13.70;45.60
22532;DHT22;11432;46.924;7.114;2023-04-01T17:19:55;13.40;55.50
22532;DHT22;11432;46.924;7.114;2023-04-01T17:22:27;12.60;13.80
22532;DHT22;11432;46.924;7.114;2023-04-01T17:25:20;11.50;1.00
22532;DHT22;11432;46.924;7.114;2023-04-01T17:33:27;10.70;1.00
22532;DHT22;11432;46.924;7.114;2023-04-01T17:41:48;10.90;1.00
22532;DHT22;11432;46.924;7.114;2023-04-01T18:11:42;9.40;1.00
22532;DHT22;11432;46.924;7.114;2023-04-01T18:19:53;9.00;1.00
22532;DHT22;11432;46.924;7.114;2023-04-01T18:25:48;8.90;1.00
22532;DHT22;11432;46.924;7.114;2023-04-01T18:30:58;8.80;1.00
22532;DHT22;11432;46.924;7.114;2023-04-01T18:33:44;8.80;1.00
22532;DHT22;11432;46.924;7.114;2023-04-01T18:41:30;8.80;1.00
22532;DHT22;11432;46.924;7.114;2023-04-01T18:47:14;8.60;1.00
22532;DHT22;11432;46.924;7.114;2023-04-01T18:52:44;8.60;1.00
22532;DHT22;11432;46.924;7.114;2023-04-01T18:55:32;8.60;1.00
22532;DHT22;11432;46.924;7.114;2023-04-01T18:58:19;8.70;1.00
22532;DHT22;11432;46.924;7.114;2023-04-01T19:00:52;8.70;1.00
22532;DHT22;11432;46.924;7.114;2023-04-01T19:05:53;8.70;1.00
22532;DHT22;11432;46.924;7.114;2023-04-01T19:08:35;8.70;1.00
22532;DHT22;11432;46.924;7.114;2023-04-01T19:16:31;8.70;1.00
22532;DHT22;11432;46.924;7.114;2023-04-01T19:21:55;8.70;42.60
22532;DHT22;11432;46.924;7.114;2023-04-01T19:38:15;8.60;99.90
22532;DHT22;11432;46.924;7.114;2023-04-01T19:43:50;8.70;99.90
22532;DHT22;11432;46.924;7.114;2023-04-01T19:46:33;8.70;84.10
22532;DHT22;11432;46.924;7.114;2023-04-01T19:51:37;8.80;46.30
22532;DHT22;11432;46.924;7.114;2023-04-01T19:54:20;8.90;1.00
22532;DHT22;11432;46.924;7.114;2023-04-01T20:11:27;8.30;1.00
22532;DHT22;11432;46.924;7.114;2023-04-01T20:14:10;8.20;1.00
22532;DHT22;11432;46.924;7.114;2023-04-01T20:19:13;8.20;1.00
22532;DHT22;11432;46.924;7.114;2023-04-01T20:21:45;8.20;1.00
22532;DHT22;11432;46.924;7.114;2023-04-01T20:26:50;8.10;1.00
22532;DHT22;11432;46.924;7.114;2023-04-01T20:32:05;8.10;27.10
22532;DHT22;11432;46.924;7.114;2023-04-01T20:34:50;8.00;99.90
22532;DHT22;11432;46.924;7.114;2023-04-01T20:40:20;7.90;99.90
22532;DHT22;11432;46.924;7.114;2023-04-01T20:53:43;7.80;99.90
22532;DHT22;11432;46.924;7.114;2023-04-01T20:56:54;7.80;99.90
22532;DHT22;11432;46.924;7.114;2023-04-01T21:04:50;7.60;99.90
22532;DHT22;11432;46.924;7.114;2023-04-01T21:07:40;7.50;99.90
22532;DHT22;11432;46.924;7.114;2023-04-01T21:10:43;7.50;99.90
22532;DHT22;11432;46.924;7.114;2023-04-01T21:13:21;7.40;99.90
22532;DHT22;11432;46.924;7.114;2023-04-01T21:16:07;7.40;99.90
22532;DHT22;11432;46.924;7.114;2023-04-01T21:41:09;7.20;99.90
22532;DHT22;11432;46.924;7.114;2023-04-01T21:58:28;7.20;99.90
22532;DHT22;11432;46.924;7.114;2023-04-01T22:03:43;7.20;99.90
22532;DHT22;11432;46.924;7.114;2023-04-01T22:06:32;7.20;99.90
22532;DHT22;11432;46.924;7.114;2023-04-01T22:09:11;7.20;99.90
22532;DHT22;11432;46.924;7.114;2023-04-01T22:12:31;7.10;99.90
22532;DHT22;11432;46.924;7.114;2023-04-01T22:15:21;7.10;99.90
22532;DHT22;11432;46.924;7.114;2023-04-01T22:18:15;7.10;99.90
22532;DHT22;11432;46.924;7.114;2023-04-01T22:20:50;7.10;99.90
22532;DHT22;11432;46.924;7.114;2023-04-01T22:26:33;7.00;99.90
22532;DHT22;11432;46.924;7.114;2023-04-01T22:29:11;7.00;99.90
22532;DHT22;11432;46.924;7.114;2023-04-01T22:34:48;7.00;99.90
22532;DHT22;11432;46.924;7.114;2023-04-01T22:39:57;6.90;99.90
22532;DHT22;11432;46.924;7.114;2023-04-01T22:42:44;6.90;99.90
22532;DHT22;11432;46.924;7.114;2023-04-01T22:48:11;6.70;99.90
22532;DHT22;11432;46.924;7.114;2023-04-01T22:56:10;6.60;99.90
22532;DHT22;11432;46.924;7.114;2023-04-01T22:58:42;6.50;99.90
22532;DHT22;11432;46.924;7.114;2023-04-01T23:01:19;6.50;99.90
22532;DHT22;11432;46.924;7.114;2023-04-01T23:03:49;6.40;99.90
22532;DHT22;11432;46.924;7.114;2023-04-01T23:06:39;6.50;99.90
22532;DHT22;11432;46.924;7.114;2023-04-01T23:09:42;6.50;99.90
22532;DHT22;11432;46.924;7.114;2023-04-01T23:12:10;6.50;99.90
22532;DHT22;11432;46.924;7.114;2023-04-01T23:14:47;6.40;99.90
22532;DHT22;11432;46.924;7.114;2023-04-01T23:19:54;6.30;99.90
22532;DHT22;11432;46.924;7.114;2023-04-01T23:22:28;6.30;99.90
22532;DHT22;11432;46.924;7.114;2023-04-01T23:24:59;6.40;99.90
22532;DHT22;11432;46.924;7.114;2023-04-01T23:27:36;6.40;99.90
22532;DHT22;11432;46.924;7.114;2023-04-01T23:30:11;6.50;99.90
22532;DHT22;11432;46.924;7.114;2023-04-01T23:32:50;6.50;99.90
22532;DHT22;11432;46.924;7.114;2023-04-01T23:35:16;6.50;99.90
22532;DHT22;11432;46.924;7.114;2023-04-01T23:37:42;6.50;99.90
22532;DHT22;11432;46.924;7.114;2023-04-01T23:40:12;6.50;99.90
22532;DHT22;11432;46.924;7.114;2023-04-01T23:42:40;6.60;99.90
22532;DHT22;11432;46.924;7.114;2023-04-01T23:45:15;6.60;99.90
22532;DHT22;11432;46.924;7.114;2023-04-01T23:47:48;6.60;99.90
22532;DHT22;11432;46.924;7.114;2023-04-01T23:50:20;6.50;99.90
22532;DHT22;11432;46.924;7.114;2023-04-01T23:52:47;6.60;99.90
22532;DHT22;11432;46.924;7.114;2023-04-01T23:55:17;6.60;99.90
22532;DHT22;11432;46.924;7.114;2023-04-01T23:58:02;6.60;99.90
